createdAt,value
2024-01-08T00:02:16.119Z,-3.95
2024-01-08T00:04:44.175Z,-3.94
2024-01-08T00:07:12.029Z,-3.97
2024-01-08T00:09:39.841Z,-4.01
2024-01-08T00:12:07.958Z,-4.04
2024-01-08T00:14:35.876Z,-4.03
2024-01-08T00:17:04.118Z,-3.97
2024-01-08T00:19:33.038Z,-3.92
2024-01-08T00:22:00.938Z,-3.86
2024-01-08T00:24:29.233Z,-3.83
2024-01-08T00:26:57.096Z,-3.85
2024-01-08T00:29:25.024Z,-3.88
2024-01-08T00:31:53.018Z,-3.86
2024-01-08T00:34:21.886Z,-3.86
2024-01-08T00:36:50.210Z,-3.89
2024-01-08T00:39:18.043Z,-3.90
2024-01-08T00:41:46.005Z,-3.93
2024-01-08T00:44:13.900Z,-3.97
2024-01-08T00:46:41.886Z,-3.97
2024-01-08T00:49:09.862Z,-3.97
2024-01-08T00:51:37.739Z,-3.99
2024-01-08T00:54:05.737Z,-4.01
2024-01-08T00:56:33.637Z,-4.07
2024-01-08T00:59:01.604Z,-4.10
2024-01-08T01:01:29.589Z,-4.09
2024-01-08T01:03:57.628Z,-4.11
2024-01-08T01:06:25.688Z,-4.09
2024-01-08T01:08:53.783Z,-4.08
2024-01-08T01:11:21.662Z,-4.15
2024-01-08T01:13:49.658Z,-4.18
2024-01-08T01:16:17.818Z,-4.24
2024-01-08T01:18:46.243Z,-4.31
2024-01-08T01:21:22.198Z,-4.34
2024-01-08T01:23:51.609Z,-4.39
2024-01-08T01:26:21.685Z,-4.44
2024-01-08T01:28:50.690Z,-4.45
2024-01-08T01:31:18.598Z,-4.44
2024-01-08T01:33:46.595Z,-4.42
2024-01-08T01:36:14.556Z,-4.41
2024-01-08T01:38:42.355Z,-4.47
2024-01-08T01:41:10.199Z,-4.50
2024-01-08T01:43:38.055Z,-4.49
2024-01-08T01:46:09.328Z,-4.48
2024-01-08T01:48:37.255Z,-4.46
2024-01-08T01:51:05.455Z,-4.40
2024-01-08T01:53:33.707Z,-4.35
2024-01-08T01:56:02.160Z,-4.36
2024-01-08T01:58:31.016Z,-4.39
2024-01-08T02:00:59.128Z,-4.42
2024-01-08T02:03:27.796Z,-4.44
2024-01-08T02:05:56.231Z,-4.50
2024-01-08T02:08:24.588Z,-4.51
2024-01-08T02:10:53.096Z,-4.51
2024-01-08T02:13:20.949Z,-4.49
2024-01-08T02:15:48.888Z,-4.53
2024-01-08T02:18:17.001Z,-4.57
2024-01-08T02:20:44.979Z,-4.56
2024-01-08T02:23:12.981Z,-4.55
2024-01-08T02:25:41.362Z,-4.54
2024-01-08T02:28:09.362Z,-4.53
2024-01-08T02:30:37.198Z,-4.52
2024-01-08T02:33:05.350Z,-4.51
2024-01-08T02:35:33.570Z,-4.53
2024-01-08T02:38:01.536Z,-4.54
2024-01-08T02:40:29.539Z,-4.54
2024-01-08T02:42:57.613Z,-4.55
2024-01-08T02:45:25.502Z,-4.51
2024-01-08T02:47:53.559Z,-4.44
2024-01-08T02:50:21.563Z,-4.39
2024-01-08T02:52:49.494Z,-4.37
2024-01-08T02:55:17.456Z,-4.33
2024-01-08T02:57:45.378Z,-4.31
2024-01-08T03:00:13.757Z,-4.32
2024-01-08T03:02:41.884Z,-4.36
2024-01-08T03:05:10.277Z,-4.38
2024-01-08T03:07:38.298Z,-4.41
2024-01-08T03:10:06.588Z,-4.42
2024-01-08T03:12:34.604Z,-4.42
2024-01-08T03:15:02.391Z,-4.43
2024-01-08T03:17:30.483Z,-4.40
2024-01-08T03:19:58.693Z,-4.37
2024-01-08T03:22:26.627Z,-4.37
2024-01-08T03:24:54.498Z,-4.37
2024-01-08T03:27:22.325Z,-4.43
2024-01-08T03:29:50.206Z,-4.48
2024-01-08T03:32:18.107Z,-4.49
2024-01-08T03:34:47.522Z,-4.44
2024-01-08T03:37:15.512Z,-4.42
2024-01-08T03:39:43.350Z,-4.43
2024-01-08T03:42:11.242Z,-4.46
2024-01-08T03:44:39.325Z,-4.46
2024-01-08T03:47:07.223Z,-4.46
2024-01-08T03:49:35.136Z,-4.56
2024-01-08T03:52:02.986Z,-4.51
2024-01-08T03:54:30.846Z,-3.04
2024-01-08T03:56:58.623Z,-1.06
2024-01-08T03:59:26.409Z,0.42
2024-01-08T04:01:55.231Z,1.30
2024-01-08T04:04:23.070Z,1.62
2024-01-08T04:06:50.900Z,2.00
2024-01-08T04:09:19.151Z,2.39
2024-01-08T04:11:47.245Z,2.71
2024-01-08T04:14:15.387Z,3.13
2024-01-08T04:16:43.454Z,3.37
2024-01-08T04:19:11.365Z,3.46
2024-01-08T04:21:39.542Z,3.51
2024-01-08T04:24:07.451Z,3.63
2024-01-08T04:26:35.346Z,3.78
2024-01-08T04:29:03.540Z,3.85
2024-01-08T04:31:32.538Z,3.97
2024-01-08T04:34:00.853Z,4.03
2024-01-08T04:36:28.879Z,4.17
2024-01-08T04:38:56.714Z,4.44
2024-01-08T04:41:24.774Z,4.39
2024-01-08T04:43:52.738Z,4.39
2024-01-08T04:46:20.624Z,4.35
2024-01-08T04:48:48.556Z,4.54
2024-01-08T04:51:24.283Z,4.64
2024-01-08T04:53:53.364Z,4.61
2024-01-08T04:56:25.746Z,4.60
2024-01-08T04:58:54.544Z,4.55
2024-01-08T05:01:23.381Z,4.77
2024-01-08T05:03:53.161Z,4.72
2024-01-08T05:06:21.202Z,4.77
2024-01-08T05:08:49.628Z,4.87
2024-01-08T05:11:17.605Z,4.82
2024-01-08T05:13:45.640Z,4.70
2024-01-08T05:16:13.612Z,4.72
2024-01-08T05:18:41.573Z,4.76
2024-01-08T05:21:14.606Z,4.70
2024-01-08T05:23:42.507Z,4.75
2024-01-08T05:26:10.760Z,4.60
2024-01-08T05:28:39.354Z,4.58
2024-01-08T05:31:07.335Z,4.58
2024-01-08T05:33:35.213Z,4.49
2024-01-08T05:36:03.654Z,4.65
2024-01-08T05:38:31.510Z,4.85
2024-01-08T05:40:59.440Z,5.05
2024-01-08T05:43:27.275Z,5.09
2024-01-08T05:45:55.445Z,5.09
2024-01-08T05:48:23.405Z,4.93
2024-01-08T05:50:51.351Z,4.86
2024-01-08T05:53:19.342Z,4.93
2024-01-08T05:55:47.237Z,5.03
2024-01-08T05:58:15.167Z,5.05
2024-01-08T06:00:43.091Z,4.89
2024-01-08T06:03:10.929Z,4.55
2024-01-08T06:05:38.913Z,4.59
2024-01-08T06:08:07.940Z,4.81
2024-01-08T06:10:35.860Z,4.69
2024-01-08T06:13:04.191Z,4.44
2024-01-08T06:15:32.001Z,4.24
2024-01-08T06:17:59.766Z,4.14
2024-01-08T06:20:27.705Z,3.80
2024-01-08T06:22:55.586Z,3.54
2024-01-08T06:25:23.596Z,3.40
2024-01-08T06:27:51.459Z,3.41
2024-01-08T06:30:19.760Z,3.53
2024-01-08T06:32:47.767Z,3.46
2024-01-08T06:35:16.050Z,3.40
2024-01-08T06:37:44.120Z,3.41
2024-01-08T06:40:12.597Z,3.48
2024-01-08T06:42:52.482Z,3.60
2024-01-08T06:45:28.216Z,3.69
2024-01-08T06:47:56.333Z,3.82
2024-01-08T06:50:24.624Z,3.90
2024-01-08T06:52:52.772Z,3.92
2024-01-08T06:55:20.670Z,3.93
2024-01-08T06:57:50.438Z,4.11
2024-01-08T07:00:19.444Z,4.23
2024-01-08T07:02:47.762Z,4.19
2024-01-08T07:05:17.120Z,4.23
2024-01-08T07:07:45.630Z,4.34
2024-01-08T07:10:13.716Z,4.38
2024-01-08T07:12:41.584Z,4.31
2024-01-08T07:15:09.510Z,4.32
2024-01-08T07:17:37.419Z,4.12
2024-01-08T07:20:05.940Z,4.26
2024-01-08T07:22:34.360Z,4.22
2024-01-08T07:25:03.372Z,4.08
2024-01-08T07:27:31.209Z,4.25
2024-01-08T07:29:59.286Z,4.12
2024-01-08T07:32:27.410Z,4.25
2024-01-08T07:34:55.394Z,4.34
2024-01-08T07:37:23.364Z,4.50
2024-01-08T07:39:51.524Z,4.45
2024-01-08T07:42:19.291Z,4.28
2024-01-08T07:44:47.189Z,4.28
2024-01-08T07:47:15.233Z,4.14
2024-01-08T07:49:43.069Z,4.11
2024-01-08T07:52:10.959Z,3.99
2024-01-08T07:54:38.748Z,4.20
2024-01-08T07:57:11.159Z,4.38
2024-01-08T07:59:40.527Z,4.37
2024-01-08T08:02:08.578Z,4.55
2024-01-08T08:04:36.490Z,4.74
2024-01-08T08:07:04.986Z,4.96
2024-01-08T08:09:32.882Z,4.92
2024-01-08T08:12:00.707Z,4.77
2024-01-08T08:14:28.554Z,4.75
2024-01-08T08:16:56.673Z,4.85
2024-01-08T08:19:26.381Z,4.92
2024-01-08T08:21:55.652Z,4.92
2024-01-08T08:24:24.506Z,5.11
2024-01-08T08:26:52.392Z,5.02
2024-01-08T08:29:20.333Z,3.68
2024-01-08T08:31:48.220Z,2.20
2024-01-08T08:34:16.492Z,1.02
2024-01-08T08:36:44.439Z,0.12
2024-01-08T08:39:16.235Z,-0.66
2024-01-08T08:41:44.830Z,-1.35
2024-01-08T08:44:14.942Z,-1.84
2024-01-08T08:46:45.651Z,-2.28
2024-01-08T08:49:15.093Z,-2.62
2024-01-08T08:51:43.114Z,-2.87
2024-01-08T08:54:11.040Z,-3.05
2024-01-08T08:56:40.564Z,-3.21
2024-01-08T08:59:08.466Z,-3.38
2024-01-08T09:01:36.570Z,-3.53
2024-01-08T09:04:04.695Z,-3.62
2024-01-08T09:06:35.464Z,-3.67
2024-01-08T09:09:03.497Z,-3.77
2024-01-08T09:11:33.341Z,-3.84
2024-01-08T09:14:01.258Z,-3.90
2024-01-08T09:16:29.216Z,-3.95
2024-01-08T09:18:57.855Z,-3.99
2024-01-08T09:21:25.981Z,-4.02
2024-01-08T09:23:54.234Z,-3.99
2024-01-08T09:26:22.198Z,-3.96
2024-01-08T09:28:50.533Z,-3.99
2024-01-08T09:31:18.940Z,-4.06
2024-01-08T09:33:48.414Z,-4.03
2024-01-08T09:36:16.446Z,-4.03
2024-01-08T09:38:46.628Z,-3.93
2024-01-08T09:41:23.159Z,-3.66
2024-01-08T09:43:53.770Z,-3.40
2024-01-08T09:46:29.963Z,-3.17
2024-01-08T09:48:59.160Z,-2.93
2024-01-08T09:51:27.097Z,-2.80
2024-01-08T09:53:59.610Z,-2.74
2024-01-08T09:56:28.486Z,-2.66
2024-01-08T09:58:57.551Z,-2.64
2024-01-08T10:01:25.500Z,-2.72
2024-01-08T10:03:53.952Z,-2.65
2024-01-08T10:06:22.323Z,-2.50
2024-01-08T10:08:50.567Z,-2.46
2024-01-08T10:11:19.348Z,-2.49
2024-01-08T10:13:47.419Z,-2.59
2024-01-08T10:16:16.325Z,-2.73
2024-01-08T10:18:48.146Z,-2.72
2024-01-08T10:21:17.260Z,-2.43
2024-01-08T10:23:47.763Z,-2.07
2024-01-08T10:26:17.861Z,-1.75
2024-01-08T10:28:47.862Z,-1.42
2024-01-08T10:31:15.738Z,-1.13
2024-01-08T10:33:45.625Z,-0.85
2024-01-08T10:36:13.695Z,-0.58
2024-01-08T10:38:41.811Z,-0.41
2024-01-08T10:41:10.525Z,-0.22
2024-01-08T10:43:38.329Z,-0.02
2024-01-08T10:46:07.904Z,0.17
2024-01-08T10:48:44.772Z,0.37
2024-01-08T10:51:16.481Z,0.54
2024-01-08T10:53:45.943Z,0.60
2024-01-08T10:56:18.282Z,0.71
2024-01-08T10:58:51.213Z,0.83
2024-01-08T11:01:19.436Z,1.00
2024-01-08T11:03:47.821Z,1.08
2024-01-08T11:06:16.881Z,1.13
2024-01-08T11:08:46.111Z,1.17
2024-01-08T11:11:16.538Z,1.27
2024-01-08T11:13:45.362Z,1.34
2024-01-08T11:16:15.017Z,1.39
2024-01-08T11:18:43.011Z,1.47
2024-01-08T11:21:13.651Z,1.55
2024-01-08T11:23:43.707Z,1.66
2024-01-08T11:26:15.945Z,1.77
2024-01-08T11:28:43.851Z,1.85
2024-01-08T11:31:25.943Z,1.94
2024-01-08T11:34:15.523Z,2.00
2024-01-08T11:36:50.614Z,2.04
2024-01-08T11:39:19.979Z,2.06
2024-01-08T11:41:48.372Z,2.01
2024-01-08T11:44:16.440Z,2.00
2024-01-08T11:46:45.724Z,2.04
2024-01-08T11:49:13.792Z,2.09
2024-01-08T11:51:43.316Z,2.14
2024-01-08T11:54:14.934Z,2.21
2024-01-08T11:56:43.316Z,2.29
2024-01-08T11:59:11.525Z,2.36
2024-01-08T12:01:39.678Z,2.41
2024-01-08T12:04:08.004Z,2.47
2024-01-08T12:06:36.148Z,2.60
2024-01-08T12:09:04.336Z,2.70
2024-01-08T12:11:32.225Z,2.83
2024-01-08T12:14:00.195Z,2.95
2024-01-08T12:16:28.870Z,2.97
2024-01-08T12:18:56.881Z,2.91
2024-01-08T12:21:28.290Z,2.83
2024-01-08T12:23:58.576Z,2.84
2024-01-08T12:26:28.354Z,2.88
2024-01-08T12:28:56.546Z,2.91
2024-01-08T12:31:27.634Z,2.97
2024-01-08T12:33:58.337Z,3.04
2024-01-08T12:36:26.323Z,3.04
2024-01-08T12:38:54.181Z,3.01
2024-01-08T12:41:22.068Z,2.95
2024-01-08T12:43:49.963Z,2.87
2024-01-08T12:46:17.861Z,2.79
2024-01-08T12:48:46.023Z,2.74
2024-01-08T12:51:14.029Z,2.68
2024-01-08T12:53:42.014Z,2.68
2024-01-08T12:56:10.616Z,2.73
2024-01-08T12:58:38.604Z,2.79
2024-01-08T13:01:06.485Z,2.83
2024-01-08T13:03:34.901Z,2.88
2024-01-08T13:06:02.849Z,2.92
2024-01-08T13:08:31.937Z,2.87
2024-01-08T13:10:59.923Z,2.79
2024-01-08T13:13:27.984Z,2.75
2024-01-08T13:15:55.809Z,2.74
2024-01-08T13:18:24.328Z,2.72
2024-01-08T13:20:52.298Z,2.75
2024-01-08T13:23:20.210Z,2.78
2024-01-08T13:25:48.215Z,2.73
2024-01-08T13:28:16.060Z,2.75
2024-01-08T13:30:44.269Z,2.68
2024-01-08T13:33:12.407Z,2.64
2024-01-08T13:35:40.328Z,2.68
2024-01-08T13:38:08.300Z,2.79
2024-01-08T13:40:36.140Z,2.88
2024-01-08T13:43:05.100Z,3.02
2024-01-08T13:45:32.946Z,3.11
2024-01-08T13:48:01.077Z,3.20
2024-01-08T13:50:31.875Z,3.30
2024-01-08T13:52:59.894Z,3.34
2024-01-08T13:55:27.708Z,3.36
2024-01-08T13:57:56.044Z,3.33
2024-01-08T14:00:23.977Z,3.38
2024-01-08T14:02:54.070Z,3.46
2024-01-08T14:05:22.338Z,3.55
2024-01-08T14:07:50.342Z,3.68
2024-01-08T14:10:18.437Z,3.80
2024-01-08T14:12:46.291Z,3.89
2024-01-08T14:15:14.526Z,3.88
2024-01-08T14:17:42.830Z,3.83
2024-01-08T14:20:18.484Z,3.80
2024-01-08T14:22:48.848Z,3.71
2024-01-08T14:25:17.718Z,3.69
2024-01-08T14:27:45.623Z,3.72
2024-01-08T14:30:13.979Z,3.67
2024-01-08T14:32:43.688Z,3.48
2024-01-08T14:35:12.219Z,3.18
2024-01-08T14:37:44.058Z,2.76
2024-01-08T14:40:12.508Z,2.32
2024-01-08T14:42:40.497Z,1.91
2024-01-08T14:45:09.066Z,1.56
2024-01-08T14:47:36.930Z,1.25
2024-01-08T14:50:07.460Z,0.90
2024-01-08T14:52:35.461Z,0.58
2024-01-08T14:55:03.546Z,0.26
2024-01-08T14:57:32.674Z,-0.02
2024-01-08T15:00:01.315Z,-0.33
2024-01-08T15:02:32.235Z,-0.68
2024-01-08T15:05:00.159Z,-1.00
2024-01-08T15:07:28.419Z,-1.22
2024-01-08T15:09:58.819Z,-1.36
2024-01-08T15:12:26.631Z,-1.48
2024-01-08T15:14:54.483Z,-1.67
2024-01-08T15:17:22.896Z,-1.86
2024-01-08T15:19:51.047Z,-2.04
2024-01-08T15:22:18.976Z,-2.24
2024-01-08T15:24:46.983Z,-2.40
2024-01-08T15:27:14.893Z,-2.50
2024-01-08T15:29:42.820Z,-2.62
2024-01-08T15:32:10.780Z,-2.77
2024-01-08T15:34:39.325Z,-2.88
2024-01-08T15:37:07.205Z,-2.96
2024-01-08T15:39:35.154Z,-2.98
2024-01-08T15:42:03.090Z,-2.96
2024-01-08T15:44:31.051Z,-2.95
2024-01-08T15:46:59.790Z,-2.92
2024-01-08T15:49:27.924Z,-2.89
2024-01-08T15:51:55.873Z,-2.88
2024-01-08T15:54:24.983Z,-2.89
2024-01-08T15:56:53.085Z,-2.91
2024-01-08T15:59:21.249Z,-2.91
2024-01-08T16:01:49.159Z,-2.91
2024-01-08T16:04:17.278Z,-2.90
2024-01-08T16:06:48.272Z,-2.89
2024-01-08T16:09:18.208Z,-2.87
2024-01-08T16:11:46.242Z,-2.85
2024-01-08T16:14:14.164Z,-2.82
2024-01-08T16:16:42.143Z,-2.80
2024-01-08T16:19:10.217Z,-2.77
2024-01-08T16:21:38.178Z,-2.74
2024-01-08T16:24:12.900Z,-2.74
2024-01-08T16:26:43.519Z,-2.72
2024-01-08T16:29:12.622Z,-2.69
2024-01-08T16:31:41.525Z,-2.67
2024-01-08T16:34:09.599Z,-2.67
2024-01-08T16:36:39.148Z,-2.68
2024-01-08T16:39:10.501Z,-2.71
2024-01-08T16:41:38.353Z,-2.79
2024-01-08T16:44:06.387Z,-2.85
2024-01-08T16:46:34.405Z,-2.91
2024-01-08T16:49:03.050Z,-2.97
2024-01-08T16:51:30.951Z,-3.03
2024-01-08T16:54:03.265Z,-3.06
2024-01-08T16:56:33.229Z,-3.08
2024-01-08T16:59:01.220Z,-3.10
2024-01-08T17:01:34.632Z,-3.13
2024-01-08T17:04:04.811Z,-3.14
2024-01-08T17:06:32.929Z,-3.15
2024-01-08T17:09:04.810Z,-3.15
2024-01-08T17:11:32.822Z,-3.14
2024-01-08T17:14:00.819Z,-3.12
2024-01-08T17:16:28.730Z,-3.08
2024-01-08T17:18:57.163Z,-3.06
2024-01-08T17:21:25.167Z,-3.07
2024-01-08T17:23:52.972Z,-3.07
2024-01-08T17:26:21.154Z,-3.07
2024-01-08T17:28:49.321Z,-3.08
2024-01-08T17:31:17.218Z,-3.09
2024-01-08T17:33:45.380Z,-3.10
2024-01-08T17:36:13.575Z,-3.11
2024-01-08T17:38:41.875Z,-3.11
2024-01-08T17:41:10.130Z,-3.13
2024-01-08T17:43:38.014Z,-3.17
2024-01-08T17:46:06.868Z,-3.20
2024-01-08T17:48:34.867Z,-3.21
2024-01-08T17:51:03.220Z,-3.22
2024-01-08T17:53:31.570Z,-3.25
2024-01-08T17:55:59.468Z,-3.29
2024-01-08T17:58:29.311Z,-3.30
2024-01-08T18:00:57.351Z,-3.31
2024-01-08T18:03:25.182Z,-3.32
2024-01-08T18:05:53.199Z,-3.35
2024-01-08T18:08:21.334Z,-3.36
2024-01-08T18:10:50.012Z,-3.37
2024-01-08T18:13:17.814Z,-3.40
2024-01-08T18:15:46.055Z,-3.44
2024-01-08T18:18:16.214Z,-3.47
2024-01-08T18:20:46.305Z,-3.49
2024-01-08T18:23:14.479Z,-3.52
2024-01-08T18:25:42.640Z,-3.54
2024-01-08T18:28:10.492Z,-3.56
2024-01-08T18:30:38.554Z,-3.58
2024-01-08T18:33:06.528Z,-3.59
2024-01-08T18:35:34.486Z,-3.61
2024-01-08T18:38:02.765Z,-3.60
2024-01-08T18:40:31.076Z,-3.59
2024-01-08T18:42:59.107Z,-3.59
2024-01-08T18:45:26.976Z,-3.60
2024-01-08T18:47:54.995Z,-3.63
2024-01-08T18:50:22.914Z,-3.67
2024-01-08T18:52:53.486Z,-3.69
2024-01-08T18:55:21.685Z,-3.72
2024-01-08T18:57:50.090Z,-3.74
2024-01-08T19:00:18.576Z,-3.76
2024-01-08T19:02:46.550Z,-3.78
2024-01-08T19:05:18.378Z,-3.79
2024-01-08T19:07:48.343Z,-3.83
2024-01-08T19:10:16.254Z,-3.89
2024-01-08T19:12:46.237Z,-3.94
2024-01-08T19:15:17.508Z,-4.00
2024-01-08T19:17:45.776Z,-4.02
2024-01-08T19:20:13.842Z,-4.07
2024-01-08T19:22:41.671Z,-4.09
2024-01-08T19:25:09.831Z,-4.11
2024-01-08T19:27:37.985Z,-4.10
2024-01-08T19:30:06.503Z,-4.08
2024-01-08T19:32:34.472Z,-4.06
2024-01-08T19:35:02.454Z,-4.04
2024-01-08T19:37:30.379Z,-4.01
2024-01-08T19:39:58.298Z,-3.99
2024-01-08T19:42:26.235Z,-3.98
2024-01-08T19:44:54.140Z,-3.96
2024-01-08T19:47:22.179Z,-3.95
2024-01-08T19:49:50.251Z,-3.97
2024-01-08T19:52:18.350Z,-4.02
2024-01-08T19:54:48.985Z,-4.06
2024-01-08T19:57:17.414Z,-4.10
2024-01-08T19:59:45.842Z,-4.14
2024-01-08T20:02:13.878Z,-4.18
2024-01-08T20:04:41.893Z,-4.23
2024-01-08T20:07:09.811Z,-4.26
2024-01-08T20:09:37.737Z,-4.28
2024-01-08T20:12:06.300Z,-4.32
2024-01-08T20:14:34.927Z,-4.35
2024-01-08T20:17:02.842Z,-4.36
2024-01-08T20:19:30.933Z,-4.40
2024-01-08T20:21:58.771Z,-4.42
2024-01-08T20:24:26.587Z,-4.43
2024-01-08T20:26:54.503Z,-4.44
2024-01-08T20:29:22.398Z,-4.45
2024-01-08T20:32:04.062Z,-4.46
2024-01-08T20:34:32.038Z,-4.48
2024-01-08T20:37:00.328Z,-4.50
2024-01-08T20:39:28.407Z,-4.50
2024-01-08T20:41:56.419Z,-4.51
2024-01-08T20:44:24.300Z,-4.52
2024-01-08T20:46:52.241Z,-4.51
2024-01-08T20:49:27.838Z,-4.51
2024-01-08T20:51:56.107Z,-4.54
2024-01-08T20:54:24.319Z,-4.56
2024-01-08T20:56:52.211Z,-4.56
2024-01-08T20:59:20.428Z,-4.56
2024-01-08T21:01:48.234Z,-4.54
2024-01-08T21:04:16.154Z,-4.52
2024-01-08T21:06:43.979Z,-4.49
2024-01-08T21:09:11.869Z,-4.44
2024-01-08T21:11:39.733Z,-4.39
2024-01-08T21:14:07.630Z,-4.37
2024-01-08T21:16:36.349Z,-4.38
2024-01-08T21:19:06.265Z,-4.39
2024-01-08T21:21:34.509Z,-4.40
2024-01-08T21:24:02.453Z,-4.43
2024-01-08T21:26:30.483Z,-4.48
2024-01-08T21:28:58.476Z,-4.60
2024-01-08T21:31:26.491Z,-4.35
2024-01-08T21:33:54.533Z,-2.56
2024-01-08T21:36:22.485Z,-0.61
2024-01-08T21:38:50.438Z,0.85
2024-01-08T21:41:18.371Z,1.90
2024-01-08T21:43:46.437Z,2.70
2024-01-08T21:46:14.266Z,3.37
2024-01-08T21:48:45.495Z,4.01
2024-01-08T21:51:13.686Z,4.59
2024-01-08T21:53:41.783Z,5.03
2024-01-08T21:56:09.952Z,5.09
2024-01-08T21:58:37.950Z,3.90
2024-01-08T22:01:05.829Z,2.63
2024-01-08T22:03:33.773Z,1.64
2024-01-08T22:06:01.846Z,0.83
2024-01-08T22:08:29.867Z,0.16
2024-01-08T22:10:57.839Z,-0.42
2024-01-08T22:13:25.729Z,-0.93
2024-01-08T22:15:53.570Z,-1.41
2024-01-08T22:18:21.457Z,-1.85
2024-01-08T22:20:49.476Z,-2.24
2024-01-08T22:23:17.484Z,-2.59
2024-01-08T22:25:45.576Z,-2.89
2024-01-08T22:28:13.461Z,-3.14
2024-01-08T22:30:41.776Z,-3.38
2024-01-08T22:33:09.989Z,-3.58
2024-01-08T22:35:38.048Z,-3.75
2024-01-08T22:38:05.858Z,-3.92
2024-01-08T22:40:33.694Z,-4.05
2024-01-08T22:43:01.477Z,-4.18
2024-01-08T22:45:29.608Z,-4.29
2024-01-08T22:47:57.566Z,-4.39
2024-01-08T22:50:25.477Z,-4.50
2024-01-08T22:52:53.360Z,-4.57
2024-01-08T22:55:22.194Z,-4.62
2024-01-08T22:57:50.209Z,-4.59
2024-01-08T23:00:18.910Z,-3.30
2024-01-08T23:02:46.884Z,-1.19
2024-01-08T23:05:15.028Z,0.40
2024-01-08T23:07:43.062Z,1.47
2024-01-08T23:10:10.971Z,2.20
2024-01-08T23:12:38.837Z,2.88
2024-01-08T23:15:07.405Z,3.50
2024-01-08T23:17:35.538Z,4.00
2024-01-08T23:20:03.979Z,4.43
2024-01-08T23:22:32.005Z,4.77
2024-01-08T23:24:59.823Z,4.96
2024-01-08T23:27:27.911Z,5.14
2024-01-08T23:29:56.876Z,4.94
2024-01-08T23:32:25.043Z,3.56
2024-01-08T23:34:52.975Z,2.20
2024-01-08T23:37:20.865Z,1.17
2024-01-08T23:39:49.028Z,0.33
2024-01-08T23:42:16.940Z,-0.38
2024-01-08T23:44:44.794Z,-1.03
2024-01-08T23:47:12.701Z,-1.53
2024-01-08T23:49:40.981Z,-1.98
2024-01-08T23:52:08.955Z,-2.42
2024-01-08T23:54:36.919Z,-2.82
2024-01-08T23:57:05.104Z,-3.23
2024-01-08T23:59:32.921Z,-3.59
